createdAt,value
2018-11-25T00:00:31.000Z,99783
2018-11-25T00:02:31.000Z,99789
2018-11-25T00:03:31.000Z,99785
2018-11-25T00:05:15.000Z,99785
2018-11-25T00:06:31.000Z,99787
2018-11-25T00:08:15.000Z,99782
2018-11-25T00:09:31.000Z,99782
2018-11-25T00:11:31.000Z,99786
2018-11-25T00:12:31.000Z,99787
2018-11-25T00:14:15.000Z,99786
2018-11-25T00:15:31.000Z,99786
2018-11-25T00:16:31.000Z,99788
2018-11-25T00:18:31.000Z,99790
2018-11-25T00:20:31.000Z,99788
2018-11-25T00:22:31.000Z,99789
2018-11-25T00:24:31.000Z,99783
2018-11-25T00:26:31.000Z,99783
2018-11-25T00:27:31.000Z,99782
2018-11-25T00:28:31.000Z,99783
2018-11-25T00:30:31.000Z,99787
2018-11-25T00:32:30.000Z,99785
2018-11-25T00:33:31.000Z,99788
2018-11-25T00:35:30.000Z,99785
2018-11-25T00:36:30.000Z,99789
2018-11-25T00:38:30.000Z,99789
2018-11-25T00:39:30.000Z,99787
2018-11-25T00:41:15.000Z,99783
2018-11-25T00:42:30.000Z,99785
2018-11-25T00:43:30.000Z,99787
2018-11-25T00:45:30.000Z,99788
2018-11-25T00:47:15.000Z,99782
2018-11-25T00:48:30.000Z,99789
2018-11-25T00:49:30.000Z,99787
2018-11-25T00:51:30.000Z,99788
2018-11-25T00:53:30.000Z,99789
2018-11-25T00:54:59.000Z,99793
2018-11-25T00:56:30.000Z,99782
2018-11-25T00:58:30.000Z,99786
2018-11-25T00:59:30.000Z,99786
2018-11-25T01:01:30.000Z,99795
2018-11-25T01:03:30.000Z,99792
2018-11-25T01:04:30.000Z,99791
2018-11-25T01:05:30.000Z,99791
2018-11-25T01:07:30.000Z,99793
2018-11-25T01:09:30.000Z,99798
2018-11-25T01:10:30.000Z,99797
2018-11-25T01:12:30.000Z,99795
2018-11-25T01:14:30.000Z,99794
2018-11-25T01:16:30.000Z,99794
2018-11-25T01:17:30.000Z,99795
2018-11-25T01:19:30.000Z,99796
2018-11-25T01:21:30.000Z,99798
2018-11-25T01:22:30.000Z,99800
2018-11-25T01:24:30.000Z,99797
2018-11-25T01:26:30.000Z,99802
2018-11-25T01:28:30.000Z,99799
2018-11-25T01:30:30.000Z,99801
2018-11-25T01:31:30.000Z,99803
2018-11-25T01:33:15.000Z,99797
2018-11-25T01:34:15.000Z,99798
2018-11-25T01:35:59.000Z,99802
2018-11-25T01:37:30.000Z,99801
2018-11-25T01:38:30.000Z,99800
2018-11-25T01:40:30.000Z,99796
2018-11-25T01:41:31.000Z,99791
2018-11-25T01:43:31.000Z,99792
2018-11-25T01:45:30.000Z,99793
2018-11-25T01:46:31.000Z,99790
2018-11-25T01:48:31.000Z,99796
2018-11-25T01:50:31.000Z,99793
2018-11-25T01:52:31.000Z,99789
2018-11-25T01:54:31.000Z,99792
2018-11-25T01:56:31.000Z,99794
2018-11-25T01:57:31.000Z,99795
2018-11-25T01:59:31.000Z,99790
2018-11-25T02:00:31.000Z,99789
2018-11-25T02:02:31.000Z,99788
2018-11-25T02:04:31.000Z,99794
2018-11-25T02:06:31.000Z,99785
2018-11-25T02:08:31.000Z,99785
2018-11-25T02:10:31.000Z,99783
2018-11-25T02:12:31.000Z,99780
2018-11-25T02:13:31.000Z,99780
2018-11-25T02:15:31.000Z,99785
2018-11-25T02:17:31.000Z,99783
2018-11-25T02:19:31.000Z,99781
2018-11-25T02:20:31.000Z,99782
2018-11-25T02:21:31.000Z,99780
2018-11-25T02:23:31.000Z,99778
2018-11-25T02:25:16.000Z,99778
2018-11-25T02:27:31.000Z,99779
2018-11-25T02:28:31.000Z,99774
2018-11-25T02:30:31.000Z,99785
2018-11-25T02:32:31.000Z,99781
2018-11-25T02:34:31.000Z,99787
2018-11-25T02:35:31.000Z,99776
2018-11-25T02:37:16.000Z,99786
2018-11-25T02:38:31.000Z,99782
2018-11-25T02:40:15.000Z,99790
2018-11-25T02:41:31.000Z,99785
2018-11-25T02:42:31.000Z,99787
2018-11-25T02:44:30.000Z,99783
2018-11-25T02:45:30.000Z,99783
2018-11-25T02:47:30.000Z,99780
2018-11-25T02:48:30.000Z,99779
2018-11-25T02:50:30.000Z,99778
2018-11-25T02:51:30.000Z,99780
2018-11-25T02:53:30.000Z,99781
2018-11-25T02:55:30.000Z,99782
2018-11-25T02:57:30.000Z,99776
2018-11-25T02:59:30.000Z,99778
2018-11-25T03:01:30.000Z,99785
2018-11-25T03:02:30.000Z,99785
2018-11-25T03:04:30.000Z,99784
2018-11-25T03:05:30.000Z,99786
2018-11-25T03:06:30.000Z,99786
2018-11-25T03:08:15.000Z,99785
2018-11-25T03:09:30.000Z,99789
2018-11-25T03:11:30.000Z,99782
2018-11-25T03:13:30.000Z,99786
2018-11-25T03:14:30.000Z,99786
2018-11-25T03:16:15.000Z,99784
2018-11-25T03:17:30.000Z,99788
2018-11-25T03:19:30.000Z,99785
2018-11-25T03:20:30.000Z,99783
2018-11-25T03:22:15.000Z,99783
2018-11-25T03:23:30.000Z,99781
2018-11-25T03:25:30.000Z,99780
2018-11-25T03:26:30.000Z,99788
2018-11-25T03:28:30.000Z,99788
2018-11-25T03:29:30.000Z,99789
2018-11-25T03:31:30.000Z,99788
2018-11-25T03:32:30.000Z,99784
2018-11-25T03:34:30.000Z,99788
2018-11-25T03:35:30.000Z,99789
2018-11-25T03:36:30.000Z,99789
2018-11-25T03:38:00.000Z,99787
2018-11-25T03:39:30.000Z,99785
2018-11-25T03:41:30.000Z,99784
2018-11-25T03:42:30.000Z,99786
2018-11-25T03:44:30.000Z,99782
2018-11-25T03:46:30.000Z,99781
2018-11-25T03:47:30.000Z,99783
2018-11-25T03:49:30.000Z,99782
2018-11-25T03:51:15.000Z,99782
2018-11-25T03:52:30.000Z,99772
2018-11-25T03:54:30.000Z,99768
2018-11-25T03:56:30.000Z,99773
2018-11-25T03:58:30.000Z,99768
2018-11-25T04:00:15.000Z,99774
2018-11-25T04:01:30.000Z,99779
2018-11-25T04:03:30.000Z,99784
2018-11-25T04:05:30.000Z,99778
2018-11-25T04:07:30.000Z,99784
2018-11-25T04:09:30.000Z,99781
2018-11-25T04:11:30.000Z,99787
2018-11-25T04:12:30.000Z,99784
2018-11-25T04:13:30.000Z,99784
2018-11-25T04:15:30.000Z,99781
2018-11-25T04:17:30.000Z,99783
2018-11-25T04:19:15.000Z,99782
2018-11-25T04:20:30.000Z,99786
2018-11-25T04:22:30.000Z,99784
2018-11-25T04:23:30.000Z,99788
2018-11-25T04:25:15.000Z,99795
2018-11-25T04:26:30.000Z,99794
2018-11-25T04:28:30.000Z,99788
2018-11-25T04:30:15.000Z,99794
2018-11-25T04:31:30.000Z,99789
2018-11-25T04:33:15.000Z,99793
2018-11-25T04:34:30.000Z,99795
2018-11-25T04:35:30.000Z,99799
2018-11-25T04:37:15.000Z,99798
2018-11-25T04:38:30.000Z,99793
2018-11-25T04:39:30.000Z,99797
2018-11-25T04:41:30.000Z,99799
2018-11-25T04:42:30.000Z,99797
2018-11-25T04:44:30.000Z,99793
2018-11-25T04:46:30.000Z,99799
2018-11-25T04:48:30.000Z,99795
2018-11-25T04:50:30.000Z,99797
2018-11-25T04:52:30.000Z,99794
2018-11-25T04:54:30.000Z,99798
2018-11-25T04:56:30.000Z,99800
2018-11-25T04:58:30.000Z,99798
2018-11-25T04:59:30.000Z,99795
2018-11-25T05:01:15.000Z,99798
2018-11-25T05:02:15.000Z,99797
2018-11-25T05:03:30.000Z,99800
2018-11-25T05:05:30.000Z,99800
2018-11-25T05:06:30.000Z,99803
2018-11-25T05:08:30.000Z,99804
2018-11-25T05:10:30.000Z,99798
2018-11-25T05:12:15.000Z,99804
2018-11-25T05:13:30.000Z,99803
2018-11-25T05:15:30.000Z,99801
2018-11-25T05:17:30.000Z,99795
2018-11-25T05:19:30.000Z,99790
2018-11-25T05:21:15.000Z,99791
2018-11-25T05:22:30.000Z,99792
2018-11-25T05:24:30.000Z,99795
2018-11-25T05:26:30.000Z,99797
2018-11-25T05:28:30.000Z,99794
2018-11-25T05:30:15.000Z,99787
2018-11-25T05:31:30.000Z,99794
2018-11-25T05:33:30.000Z,99792
2018-11-25T05:35:30.000Z,99786
2018-11-25T05:37:30.000Z,99786
2018-11-25T05:39:30.000Z,99784
2018-11-25T05:41:30.000Z,99785
2018-11-25T05:43:30.000Z,99789
2018-11-25T05:44:30.000Z,99788
2018-11-25T05:45:30.000Z,99792
2018-11-25T05:47:30.000Z,99787
2018-11-25T05:49:30.000Z,99779
2018-11-25T05:51:15.000Z,99785
2018-11-25T05:52:30.000Z,99783
2018-11-25T05:54:15.000Z,99788
2018-11-25T05:55:31.000Z,99782
2018-11-25T05:57:15.000Z,99779
2018-11-25T05:58:31.000Z,99775
2018-11-25T06:00:31.000Z,99778
2018-11-25T06:02:15.000Z,99776
2018-11-25T06:03:15.000Z,99778
2018-11-25T06:04:31.000Z,99779
2018-11-25T06:06:31.000Z,99779
2018-11-25T06:08:31.000Z,99781
2018-11-25T06:10:31.000Z,99785
2018-11-25T06:12:31.000Z,99788
2018-11-25T06:13:31.000Z,99787
2018-11-25T06:15:31.000Z,99789
2018-11-25T06:16:31.000Z,99792
2018-11-25T06:18:31.000Z,99791
2018-11-25T06:20:31.000Z,99781
2018-11-25T06:22:31.000Z,99780
2018-11-25T06:24:31.000Z,99789
2018-11-25T06:26:00.000Z,99795
2018-11-25T06:27:31.000Z,99797
2018-11-25T06:29:16.000Z,99779
2018-11-25T06:30:16.000Z,99794
2018-11-25T06:31:31.000Z,99791
2018-11-25T06:32:31.000Z,99790
2018-11-25T06:34:15.000Z,99790
2018-11-25T06:35:31.000Z,99790
2018-11-25T06:36:31.000Z,99785
2018-11-25T06:38:15.000Z,99785
2018-11-25T06:39:31.000Z,99787
2018-11-25T06:41:15.000Z,99785
2018-11-25T06:42:31.000Z,99786
2018-11-25T06:43:31.000Z,99791
2018-11-25T06:45:31.000Z,99792
2018-11-25T06:47:15.000Z,99794
2018-11-25T06:48:31.000Z,99791
2018-11-25T06:49:31.000Z,99797
2018-11-25T06:51:31.000Z,99796
2018-11-25T06:53:31.000Z,99801
2018-11-25T06:54:31.000Z,99806
2018-11-25T06:55:31.000Z,99806
2018-11-25T06:57:30.000Z,99807
2018-11-25T06:59:15.000Z,99809
2018-11-25T07:00:30.000Z,99807
2018-11-25T07:02:30.000Z,99808
2018-11-25T07:04:30.000Z,99808
2018-11-25T07:06:30.000Z,99821
2018-11-25T07:07:30.000Z,99826
2018-11-25T07:09:30.000Z,99822
2018-11-25T07:11:30.000Z,99819
2018-11-25T07:12:30.000Z,99814
2018-11-25T07:14:15.000Z,99812
2018-11-25T07:16:30.000Z,99820
2018-11-25T07:18:30.000Z,99814
2018-11-25T07:20:30.000Z,99813
2018-11-25T07:21:30.000Z,99812
2018-11-25T07:23:30.000Z,99818
2018-11-25T07:25:30.000Z,99817
2018-11-25T07:27:15.000Z,99816
2018-11-25T07:29:30.000Z,99820
2018-11-25T07:31:30.000Z,99817
2018-11-25T07:32:30.000Z,99818
2018-11-25T07:33:30.000Z,99819
2018-11-25T07:35:30.000Z,99818
2018-11-25T07:36:30.000Z,99820
2018-11-25T07:38:30.000Z,99824
2018-11-25T07:40:30.000Z,99813
2018-11-25T07:41:30.000Z,99818
2018-11-25T07:43:30.000Z,99818
2018-11-25T07:45:30.000Z,99815
2018-11-25T07:47:30.000Z,99817
2018-11-25T07:49:30.000Z,99821
2018-11-25T07:50:30.000Z,99822
2018-11-25T07:52:15.000Z,99821
2018-11-25T07:53:30.000Z,99824
2018-11-25T07:55:30.000Z,99823
2018-11-25T07:56:30.000Z,99823
2018-11-25T07:58:30.000Z,99825
2018-11-25T08:00:15.000Z,99820
2018-11-25T08:01:31.000Z,99823
2018-11-25T08:03:31.000Z,99820
2018-11-25T08:05:31.000Z,99818
2018-11-25T08:07:31.000Z,99819
2018-11-25T08:09:30.000Z,99823
2018-11-25T08:10:31.000Z,99812
2018-11-25T08:12:00.000Z,99814
2018-11-25T08:13:31.000Z,99814
2018-11-25T08:15:31.000Z,99809
2018-11-25T08:17:31.000Z,99812
2018-11-25T08:19:15.000Z,99814
2018-11-25T08:20:31.000Z,99818
2018-11-25T08:22:31.000Z,99819
2018-11-25T08:23:31.000Z,99815
2018-11-25T08:25:31.000Z,99816
2018-11-25T08:27:31.000Z,99813
2018-11-25T08:28:31.000Z,99811
2018-11-25T08:29:31.000Z,99815
2018-11-25T08:31:31.000Z,99814
2018-11-25T08:33:31.000Z,99811
2018-11-25T08:35:31.000Z,99813
2018-11-25T08:37:31.000Z,99818
2018-11-25T08:38:31.000Z,99820
2018-11-25T08:40:31.000Z,99824
2018-11-25T08:42:31.000Z,99821
2018-11-25T08:44:31.000Z,99821
2018-11-25T08:46:31.000Z,99815
2018-11-25T08:48:31.000Z,99817
2018-11-25T08:49:31.000Z,99818
2018-11-25T08:51:00.000Z,99816
2018-11-25T08:52:31.000Z,99821
2018-11-25T08:54:31.000Z,99813
2018-11-25T08:55:31.000Z,99816
2018-11-25T08:57:31.000Z,99812
2018-11-25T08:58:31.000Z,99815
2018-11-25T08:59:31.000Z,99806
2018-11-25T09:01:31.000Z,99799
2018-11-25T09:03:31.000Z,99805
2018-11-25T09:04:31.000Z,99805
2018-11-25T09:06:31.000Z,99803
2018-11-25T09:08:31.000Z,99806
2018-11-25T09:09:31.000Z,99801
2018-11-25T09:11:31.000Z,99800
2018-11-25T09:13:00.000Z,99801
2018-11-25T09:14:31.000Z,99798
2018-11-25T09:16:15.000Z,99800
2018-11-25T09:17:31.000Z,99798
2018-11-25T09:18:31.000Z,99797
2018-11-25T09:20:31.000Z,99794
2018-11-25T09:21:31.000Z,99794
2018-11-25T09:22:31.000Z,99793
2018-11-25T09:24:31.000Z,99795
2018-11-25T09:26:15.000Z,99799
2018-11-25T09:27:31.000Z,99804
2018-11-25T09:28:31.000Z,99798
2018-11-25T09:30:31.000Z,99800
2018-11-25T09:32:16.000Z,99801
2018-11-25T09:34:15.000Z,99805
2018-11-25T09:35:31.000Z,99804
2018-11-25T09:37:31.000Z,99805
2018-11-25T09:39:31.000Z,99802
2018-11-25T09:40:31.000Z,99808
2018-11-25T09:42:15.000Z,99803
2018-11-25T09:43:31.000Z,99805
2018-11-25T09:45:31.000Z,99809
2018-11-25T09:47:31.000Z,99807
2018-11-25T09:49:15.000Z,99810
2018-11-25T09:50:31.000Z,99810
2018-11-25T09:52:31.000Z,99818
2018-11-25T09:53:31.000Z,99818
2018-11-25T09:55:15.000Z,99822
2018-11-25T09:56:31.000Z,99821
2018-11-25T09:58:31.000Z,99821
2018-11-25T10:00:31.000Z,99822
2018-11-25T10:02:31.000Z,99821
2018-11-25T10:03:31.000Z,99821
2018-11-25T10:05:31.000Z,99822
2018-11-25T10:07:31.000Z,99822
2018-11-25T10:09:31.000Z,99822
2018-11-25T10:11:31.000Z,99816
2018-11-25T10:13:31.000Z,99814
2018-11-25T10:15:31.000Z,99811
2018-11-25T10:17:31.000Z,99806
2018-11-25T10:18:31.000Z,99802
2018-11-25T10:20:31.000Z,99806
2018-11-25T10:21:31.000Z,99808
2018-11-25T10:23:31.000Z,99807
2018-11-25T10:24:31.000Z,99804
2018-11-25T10:25:31.000Z,99799
2018-11-25T10:27:16.000Z,99801
2018-11-25T10:28:31.000Z,99799
2018-11-25T10:30:31.000Z,99799
2018-11-25T10:32:15.000Z,99793
2018-11-25T10:33:31.000Z,99792
2018-11-25T10:34:31.000Z,99789
2018-11-25T10:36:01.000Z,99790
2018-11-25T10:37:31.000Z,99787
2018-11-25T10:39:31.000Z,99789
2018-11-25T10:40:31.000Z,99785
2018-11-25T10:42:15.000Z,99787
2018-11-25T10:43:16.000Z,99787
2018-11-25T10:44:31.000Z,99787
2018-11-25T10:46:31.000Z,99785
2018-11-25T10:47:31.000Z,99781
2018-11-25T10:49:31.000Z,99782
2018-11-25T10:50:31.000Z,99784
2018-11-25T10:52:31.000Z,99786
2018-11-25T10:53:31.000Z,99785
2018-11-25T10:55:31.000Z,99787
2018-11-25T10:57:15.000Z,99782
2018-11-25T10:58:31.000Z,99783
2018-11-25T11:00:31.000Z,99783
2018-11-25T11:13:57.000Z,99766
2018-11-25T11:16:12.000Z,99777
2018-11-25T11:17:12.000Z,99774
2018-11-25T11:19:12.000Z,99772
2018-11-25T11:20:12.000Z,99770
2018-11-25T11:21:12.000Z,99772
2018-11-25T11:23:12.000Z,99772
2018-11-25T11:24:12.000Z,99772
2018-11-25T11:26:12.000Z,99772
2018-11-25T11:28:12.000Z,99775
2018-11-25T11:30:12.000Z,99780
2018-11-25T11:31:12.000Z,99783
2018-11-25T11:33:12.000Z,99783
2018-11-25T11:34:12.000Z,99780
2018-11-25T11:36:12.000Z,99783
2018-11-25T11:37:12.000Z,99783
2018-11-25T11:39:12.000Z,99780
2018-11-25T11:41:12.000Z,99779
2018-11-25T11:42:12.000Z,99772
2018-11-25T11:44:12.000Z,99777
2018-11-25T11:45:12.000Z,99782
2018-11-25T11:46:12.000Z,99781
2018-11-25T11:48:12.000Z,99787
2018-11-25T11:50:12.000Z,99781
2018-11-25T11:51:12.000Z,99785
2018-11-25T11:53:12.000Z,99793
2018-11-25T11:55:12.000Z,99789
2018-11-25T11:57:12.000Z,99790
2018-11-25T11:59:12.000Z,99789
2018-11-25T12:01:12.000Z,99788
2018-11-25T12:03:12.000Z,99785
2018-11-25T12:05:12.000Z,99784
2018-11-25T12:07:12.000Z,99789
2018-11-25T12:08:57.000Z,99787
2018-11-25T12:10:12.000Z,99788
2018-11-25T12:12:12.000Z,99784
2018-11-25T12:13:12.000Z,99781
2018-11-25T12:14:57.000Z,99784
2018-11-25T12:16:12.000Z,99786
2018-11-25T12:17:12.000Z,99780
2018-11-25T12:19:12.000Z,99782
2018-11-25T12:20:12.000Z,99777
2018-11-25T12:21:57.000Z,99772
2018-11-25T12:23:57.000Z,99780
2018-11-25T12:25:12.000Z,99778
2018-11-25T12:26:12.000Z,99777
2018-11-25T12:28:12.000Z,99776
2018-11-25T12:30:12.000Z,99771
2018-11-25T12:31:12.000Z,99777
2018-11-25T12:32:12.000Z,99775
2018-11-25T12:33:42.000Z,99777
2018-11-25T12:35:12.000Z,99780
2018-11-25T12:37:12.000Z,99783
2018-11-25T12:39:12.000Z,99782
2018-11-25T12:40:57.000Z,99780
2018-11-25T12:42:12.000Z,99782
2018-11-25T12:43:12.000Z,99782
2018-11-25T12:45:12.000Z,99781
2018-11-25T12:47:12.000Z,99780
2018-11-25T12:48:12.000Z,99777
2018-11-25T12:50:12.000Z,99774
2018-11-25T12:52:12.000Z,99776
2018-11-25T12:54:12.000Z,99773
2018-11-25T12:56:12.000Z,99774
2018-11-25T12:57:12.000Z,99777
2018-11-25T12:59:12.000Z,99778
2018-11-25T13:00:12.000Z,99775
2018-11-25T13:02:12.000Z,99773
2018-11-25T13:03:12.000Z,99772
2018-11-25T13:05:12.000Z,99769
2018-11-25T13:07:12.000Z,99769
2018-11-25T13:08:12.000Z,99770
2018-11-25T13:09:57.000Z,99766
2018-11-25T13:11:12.000Z,99766
2018-11-25T13:12:12.000Z,99768
2018-11-25T13:14:12.000Z,99765
2018-11-25T13:16:12.000Z,99766
2018-11-25T13:17:12.000Z,99757
2018-11-25T13:18:57.000Z,99761
2018-11-25T13:20:12.000Z,99761
2018-11-25T13:22:12.000Z,99761
2018-11-25T13:23:41.000Z,99762
2018-11-25T13:25:12.000Z,99759
2018-11-25T13:26:12.000Z,99758
2018-11-25T13:28:12.000Z,99756
2018-11-25T13:29:56.000Z,99758
2018-11-25T13:31:12.000Z,99752
2018-11-25T13:33:12.000Z,99752
2018-11-25T13:35:12.000Z,99745
2018-11-25T13:36:12.000Z,99749
2018-11-25T13:37:12.000Z,99747
2018-11-25T13:39:12.000Z,99744
2018-11-25T13:41:12.000Z,99741
2018-11-25T13:42:41.000Z,99737
2018-11-25T13:44:12.000Z,99741
2018-11-25T13:46:12.000Z,99738
2018-11-25T13:48:12.000Z,99742
2018-11-25T13:50:12.000Z,99739
2018-11-25T13:52:12.000Z,99737
2018-11-25T13:53:12.000Z,99733
2018-11-25T13:55:12.000Z,99739
2018-11-25T13:56:12.000Z,99735
2018-11-25T13:58:12.000Z,99731
2018-11-25T14:00:12.000Z,99734
2018-11-25T14:02:12.000Z,99732
2018-11-25T14:04:12.000Z,99731
2018-11-25T14:06:12.000Z,99725
2018-11-25T14:08:12.000Z,99726
2018-11-25T14:10:12.000Z,99726
2018-11-25T14:12:12.000Z,99720
2018-11-25T14:13:12.000Z,99719
2018-11-25T14:15:12.000Z,99715
2018-11-25T14:16:12.000Z,99711
2018-11-25T14:18:12.000Z,99717
2018-11-25T14:19:12.000Z,99720
2018-11-25T14:20:56.000Z,99721
2018-11-25T14:22:12.000Z,99721
2018-11-25T14:24:12.000Z,99722
2018-11-25T14:26:12.000Z,99717
2018-11-25T14:27:12.000Z,99718
2018-11-25T14:28:56.000Z,99723
2018-11-25T14:30:12.000Z,99721
2018-11-25T14:32:12.000Z,99719
2018-11-25T14:33:12.000Z,99719
2018-11-25T14:35:12.000Z,99718
2018-11-25T14:37:12.000Z,99715
2018-11-25T14:39:12.000Z,99716
2018-11-25T14:41:12.000Z,99713
2018-11-25T14:43:12.000Z,99717
2018-11-25T14:44:12.000Z,99715
2018-11-25T14:45:41.000Z,99719
2018-11-25T14:47:12.000Z,99716
2018-11-25T14:48:56.000Z,99719
2018-11-25T14:50:12.000Z,99718
2018-11-25T14:52:12.000Z,99723
2018-11-25T14:54:12.000Z,99720
2018-11-25T14:56:12.000Z,99716
2018-11-25T14:58:12.000Z,99727
2018-11-25T15:00:12.000Z,99725
2018-11-25T15:01:12.000Z,99719
2018-11-25T15:03:12.000Z,99729
2018-11-25T15:05:12.000Z,99727
2018-11-25T15:06:12.000Z,99724
2018-11-25T15:07:56.000Z,99729
2018-11-25T15:09:12.000Z,99732
2018-11-25T15:10:56.000Z,99732
2018-11-25T15:12:12.000Z,99734
2018-11-25T15:13:56.000Z,99736
2018-11-25T15:15:12.000Z,99734
2018-11-25T15:17:11.000Z,99728
2018-11-25T15:18:12.000Z,99731
2018-11-25T15:19:12.000Z,99730
2018-11-25T15:20:12.000Z,99731
2018-11-25T15:22:12.000Z,99725
2018-11-25T15:24:12.000Z,99731
2018-11-25T15:25:12.000Z,99731
2018-11-25T15:27:12.000Z,99732
2018-11-25T15:29:12.000Z,99732
2018-11-25T15:30:12.000Z,99733
2018-11-25T15:32:12.000Z,99737
2018-11-25T15:34:12.000Z,99731
2018-11-25T15:36:12.000Z,99726
2018-11-25T15:38:12.000Z,99723
2018-11-25T15:40:12.000Z,99725
2018-11-25T15:42:12.000Z,99723
2018-11-25T15:44:12.000Z,99717
2018-11-25T15:46:12.000Z,99720
2018-11-25T15:48:12.000Z,99717
2018-11-25T15:50:12.000Z,99716
2018-11-25T15:51:12.000Z,99720
2018-11-25T15:53:12.000Z,99714
2018-11-25T15:54:12.000Z,99718
2018-11-25T15:56:12.000Z,99716
2018-11-25T15:58:12.000Z,99717
2018-11-25T15:59:12.000Z,99716
2018-11-25T16:01:12.000Z,99716
2018-11-25T16:03:12.000Z,99718
2018-11-25T16:04:12.000Z,99715
2018-11-25T16:05:56.000Z,99711
2018-11-25T16:07:12.000Z,99712
2018-11-25T16:08:12.000Z,99707
2018-11-25T16:10:12.000Z,99717
2018-11-25T16:11:12.000Z,99712
2018-11-25T16:13:12.000Z,99719
2018-11-25T16:15:12.000Z,99717
2018-11-25T16:17:12.000Z,99715
2018-11-25T16:18:41.000Z,99713
2018-11-25T16:20:12.000Z,99716
2018-11-25T16:21:12.000Z,99720
2018-11-25T16:22:12.000Z,99722
2018-11-25T16:23:56.000Z,99724
2018-11-25T16:25:12.000Z,99722
2018-11-25T16:27:12.000Z,99727
2018-11-25T16:29:12.000Z,99721
2018-11-25T16:31:12.000Z,99714
2018-11-25T16:32:12.000Z,99717
2018-11-25T16:33:57.000Z,99717
2018-11-25T16:35:12.000Z,99708
2018-11-25T16:37:12.000Z,99703
2018-11-25T16:38:12.000Z,99704
2018-11-25T16:39:12.000Z,99704
2018-11-25T16:41:12.000Z,99704
2018-11-25T16:43:12.000Z,99708
2018-11-25T16:45:12.000Z,99708
2018-11-25T16:47:12.000Z,99708
2018-11-25T16:49:12.000Z,99710
2018-11-25T16:50:12.000Z,99712
2018-11-25T16:51:57.000Z,99707
2018-11-25T16:53:12.000Z,99701
2018-11-25T16:54:12.000Z,99700
2018-11-25T16:55:57.000Z,99701
2018-11-25T16:57:12.000Z,99695
2018-11-25T16:58:12.000Z,99695
2018-11-25T16:59:12.000Z,99698
2018-11-25T17:01:12.000Z,99691
2018-11-25T17:03:12.000Z,99690
2018-11-25T17:04:57.000Z,99699
2018-11-25T17:06:12.000Z,99693
2018-11-25T17:07:12.000Z,99689
2018-11-25T17:09:12.000Z,99693
2018-11-25T17:11:12.000Z,99691
2018-11-25T17:13:12.000Z,99692
2018-11-25T17:15:12.000Z,99685
2018-11-25T17:16:12.000Z,99687
2018-11-25T17:17:57.000Z,99692
2018-11-25T17:19:12.000Z,99690
2018-11-25T17:20:12.000Z,99692
2018-11-25T17:21:57.000Z,99691
2018-11-25T17:24:12.000Z,99695
2018-11-25T17:26:12.000Z,99699
2018-11-25T17:28:12.000Z,99699
2018-11-25T17:29:12.000Z,99703
2018-11-25T17:31:12.000Z,99699
2018-11-25T17:33:12.000Z,99701
2018-11-25T17:34:12.000Z,99705
2018-11-25T17:36:12.000Z,99704
2018-11-25T17:37:12.000Z,99705
2018-11-25T17:39:12.000Z,99697
2018-11-25T17:40:12.000Z,99704
2018-11-25T17:42:12.000Z,99708
2018-11-25T17:44:12.000Z,99708
2018-11-25T17:46:12.000Z,99712
2018-11-25T17:48:12.000Z,99710
2018-11-25T17:50:12.000Z,99715
2018-11-25T17:51:57.000Z,99717
2018-11-25T17:53:12.000Z,99718
2018-11-25T17:55:12.000Z,99724
2018-11-25T17:56:12.000Z,99720
2018-11-25T17:58:12.000Z,99725
2018-11-25T18:00:12.000Z,99721
2018-11-25T18:02:12.000Z,99723
2018-11-25T18:03:12.000Z,99720
2018-11-25T18:05:12.000Z,99716
2018-11-25T18:07:12.000Z,99719
2018-11-25T18:09:12.000Z,99722
2018-11-25T18:10:12.000Z,99723
2018-11-25T18:12:12.000Z,99727
2018-11-25T18:13:57.000Z,99724
2018-11-25T18:15:12.000Z,99727
2018-11-25T18:17:12.000Z,99730
2018-11-25T18:18:12.000Z,99728
2018-11-25T18:20:12.000Z,99729
2018-11-25T18:22:12.000Z,99734
2018-11-25T18:24:12.000Z,99729
2018-11-25T18:26:12.000Z,99736
2018-11-25T18:27:57.000Z,99729
2018-11-25T18:30:12.000Z,99734
2018-11-25T18:31:12.000Z,99731
2018-11-25T18:32:12.000Z,99734
2018-11-25T18:34:12.000Z,99729
2018-11-25T18:36:12.000Z,99733
2018-11-25T18:38:12.000Z,99736
2018-11-25T18:39:12.000Z,99731
2018-11-25T18:41:12.000Z,99729
2018-11-25T18:43:12.000Z,99729
2018-11-25T18:45:12.000Z,99730
2018-11-25T18:46:42.000Z,99730
2018-11-25T18:48:12.000Z,99735
2018-11-25T18:50:12.000Z,99729
2018-11-25T18:51:57.000Z,99731
2018-11-25T18:53:57.000Z,99731
2018-11-25T18:55:12.000Z,99732
2018-11-25T18:57:12.000Z,99737
2018-11-25T18:58:12.000Z,99728
2018-11-25T19:00:12.000Z,99725
2018-11-25T19:01:12.000Z,99732
2018-11-25T19:03:12.000Z,99736
2018-11-25T19:05:12.000Z,99738
2018-11-25T19:06:57.000Z,99735
2018-11-25T19:07:57.000Z,99727
2018-11-25T19:09:12.000Z,99735
2018-11-25T19:10:12.000Z,99737
2018-11-25T19:12:12.000Z,99736
2018-11-25T19:14:12.000Z,99737
2018-11-25T19:15:12.000Z,99734
2018-11-25T19:16:12.000Z,99732
2018-11-25T19:18:12.000Z,99730
2018-11-25T19:20:12.000Z,99729
2018-11-25T19:22:12.000Z,99733
2018-11-25T19:23:12.000Z,99722
2018-11-25T19:25:12.000Z,99722
2018-11-25T19:27:12.000Z,99727
2018-11-25T19:29:12.000Z,99727
2018-11-25T19:31:12.000Z,99729
2018-11-25T19:33:12.000Z,99720
2018-11-25T19:34:57.000Z,99724
2018-11-25T19:36:12.000Z,99720
2018-11-25T19:38:12.000Z,99713
2018-11-25T19:40:12.000Z,99720
2018-11-25T19:41:12.000Z,99718
2018-11-25T19:43:12.000Z,99713
2018-11-25T19:44:12.000Z,99714
2018-11-25T19:46:12.000Z,99710
2018-11-25T19:48:12.000Z,99709
2018-11-25T19:49:57.000Z,99709
2018-11-25T19:51:12.000Z,99712
2018-11-25T19:53:12.000Z,99710
2018-11-25T19:54:12.000Z,99711
2018-11-25T19:55:57.000Z,99706
2018-11-25T19:57:12.000Z,99707
2018-11-25T19:58:57.000Z,99708
2018-11-25T20:00:12.000Z,99706
2018-11-25T20:02:12.000Z,99705
2018-11-25T20:04:12.000Z,99696
2018-11-25T20:06:12.000Z,99690
2018-11-25T20:07:12.000Z,99689
2018-11-25T20:09:12.000Z,99688
2018-11-25T20:10:12.000Z,99685
2018-11-25T20:11:12.000Z,99686
2018-11-25T20:13:12.000Z,99693
2018-11-25T20:15:12.000Z,99694
2018-11-25T20:16:12.000Z,99700
2018-11-25T20:18:12.000Z,99703
2018-11-25T20:19:12.000Z,99700
2018-11-25T20:21:12.000Z,99699
2018-11-25T20:22:12.000Z,99705
2018-11-25T20:24:12.000Z,99703
2018-11-25T20:25:57.000Z,99706
2018-11-25T20:27:12.000Z,99708
2018-11-25T20:28:57.000Z,99704
2018-11-25T20:30:12.000Z,99705
2018-11-25T20:32:12.000Z,99706
2018-11-25T20:33:12.000Z,99704
2018-11-25T20:35:12.000Z,99700
2018-11-25T20:36:12.000Z,99700
2018-11-25T20:38:12.000Z,99701
2018-11-25T20:39:12.000Z,99697
2018-11-25T20:40:12.000Z,99694
2018-11-25T20:42:12.000Z,99693
2018-11-25T20:43:12.000Z,99690
2018-11-25T20:44:12.000Z,99691
2018-11-25T20:45:12.000Z,99687
2018-11-25T20:47:12.000Z,99686
2018-11-25T20:49:12.000Z,99681
2018-11-25T20:51:12.000Z,99679
2018-11-25T20:53:12.000Z,99690
2018-11-25T20:55:12.000Z,99688
2018-11-25T20:56:12.000Z,99695
2018-11-25T20:58:12.000Z,99693
2018-11-25T21:00:12.000Z,99690
2018-11-25T21:01:12.000Z,99693
2018-11-25T21:03:12.000Z,99690
2018-11-25T21:05:12.000Z,99689
2018-11-25T21:06:12.000Z,99690
2018-11-25T21:07:12.000Z,99688